MMSD

Details ICAO MMSD (SJD)
Name Los Cabos Intl
Region Mexico
Timezone America/Mazatlan (UTC-6.0)
Plans Departing 287
Arriving 430
Stats Elevation 374 ft / 114 m (AMSL)
Location 23.152100° -109.721000°
Runways 1
Magnetic Variation 8.178° E
Sunrise 2019-08-24 12:59:48 UTC / 2019-08-24 06:59:48 Local
Sunset 2019-08-25 01:45:47 UTC / 2019-08-24 19:45:47 Local
Advertisement - Login to hide

Runways

ID Width Length Bearing (true/mag) Surface Threshold Overrun Markings Lighting
16 148 ft / 45 m 9,853 ft / 3,003 m 173.95° / 165.77° ASPHALT 0 ft / 0 m 197 ft / 60 m APP EDGE THRESHOLD
34 148 ft / 45 m 9,853 ft / 3,003 m 353.95° / 345.77° ASPHALT 0 ft / 0 m 200 ft / 61 m APP EDGE THRESHOLD

Map

Weather


0- 5 10 15 20 25 30 35+ Temperature / °C

Clouds and Precipitation
Forecast for 2019-08-24 18:00 UTC. Updated 4 hours ago

Ground ~20,000 ft ~40,000 ft Winds

METAR

MMSD 241848Z 11011KT 10SM SCT025 SCT250 29/23 A2998 RMK 8/502

TAF

TAF TAF MMSD 241718Z 2418/2518 14010KT P6SM BKN020 TEMPO 2419/2423 5SM RA FM250400 30005KT P6SM SCT010 SCT250 FM251700 16008KT P6SM BKN250

Frequencies

Recorded 127.60 MHz ATIS
Approach 120.90 MHz SAN JOSE APP
Tower 118.90 MHz SAN JOSE TWR
Warning: Do not use this data for real-world aviation or navigation. No guarantee of current accuracy is given.